sensor_id;sensor_type;location;lat;lon;timestamp;pressure;altitude;pressure_sealevel;temperature;humidity
56182;BME280;51963;46.052;14.544;2023-04-24T00:00:34;97438.81;;;13.97;76.99
56182;BME280;51963;46.052;14.544;2023-04-24T00:03:01;97436.63;;;13.93;77.15
56182;BME280;51963;46.052;14.544;2023-04-24T00:05:29;97431.19;;;13.88;77.54
56182;BME280;51963;46.052;14.544;2023-04-24T00:07:55;97429.34;;;13.89;76.96
56182;BME280;51963;46.052;14.544;2023-04-24T00:10:21;97420.22;;;13.97;76.52
56182;BME280;51963;46.052;14.544;2023-04-24T00:12:49;97409.25;;;13.81;76.68
56182;BME280;51963;46.052;14.544;2023-04-24T00:15:22;97399.22;;;13.59;77.73
56182;BME280;51963;46.052;14.544;2023-04-24T00:17:48;97415.59;;;13.56;78.47
56182;BME280;51963;46.052;14.544;2023-04-24T00:20:14;97413.03;;;13.38;81.06
56182;BME280;51963;46.052;14.544;2023-04-24T00:22:40;97406.84;;;13.56;78.97
56182;BME280;51963;46.052;14.544;2023-04-24T00:25:06;97415.59;;;13.44;79.80
56182;BME280;51963;46.052;14.544;2023-04-24T00:27:32;97413.59;;;13.40;79.89
56182;BME280;51963;46.052;14.544;2023-04-24T00:30:03;97398.94;;;13.37;80.93
56182;BME280;51963;46.052;14.544;2023-04-24T00:32:30;97397.75;;;13.21;80.31
56182;BME280;51963;46.052;14.544;2023-04-24T00:34:55;97399.59;;;13.09;80.62
56182;BME280;51963;46.052;14.544;2023-04-24T00:37:21;97400.63;;;13.08;82.44
56182;BME280;51963;46.052;14.544;2023-04-24T00:39:47;97402.13;;;13.15;80.48
56182;BME280;51963;46.052;14.544;2023-04-24T00:42:16;97393.38;;;13.15;80.20
56182;BME280;51963;46.052;14.544;2023-04-24T00:44:42;97390.22;;;13.06;82.19
56182;BME280;51963;46.052;14.544;2023-04-24T00:47:08;97384.78;;;12.89;81.88
56182;BME280;51963;46.052;14.544;2023-04-24T00:49:33;97386.94;;;12.80;82.09
56182;BME280;51963;46.052;14.544;2023-04-24T00:51:59;97386.25;;;12.85;82.21
56182;BME280;51963;46.052;14.544;2023-04-24T00:54:28;97380.38;;;12.95;82.06
56182;BME280;51963;46.052;14.544;2023-04-24T00:56:54;97381.84;;;13.21;80.28
56182;BME280;51963;46.052;14.544;2023-04-24T00:59:22;97374.16;;;13.01;83.17
56182;BME280;51963;46.052;14.544;2023-04-24T01:01:47;97369.91;;;12.88;83.13
56182;BME280;51963;46.052;14.544;2023-04-24T01:04:16;97382.59;;;12.98;82.76
56182;BME280;51963;46.052;14.544;2023-04-24T01:06:44;97374.63;;;12.86;83.92
56182;BME280;51963;46.052;14.544;2023-04-24T01:09:13;97378.19;;;12.80;84.79
56182;BME280;51963;46.052;14.544;2023-04-24T01:11:41;97377.72;;;12.83;85.91
56182;BME280;51963;46.052;14.544;2023-04-24T01:14:13;97380.25;;;12.77;87.24
56182;BME280;51963;46.052;14.544;2023-04-24T01:16:44;97384.13;;;12.63;86.38
56182;BME280;51963;46.052;14.544;2023-04-24T01:19:10;97375.38;;;12.44;87.83
56182;BME280;51963;46.052;14.544;2023-04-24T01:21:37;97375.47;;;12.37;88.06
56182;BME280;51963;46.052;14.544;2023-04-24T01:24:06;97374.59;;;12.43;87.91
56182;BME280;51963;46.052;14.544;2023-04-24T01:26:34;97376.66;;;12.41;88.47
56182;BME280;51963;46.052;14.544;2023-04-24T01:29:05;97369.81;;;12.33;89.90
56182;BME280;51963;46.052;14.544;2023-04-24T01:31:31;97376.22;;;12.44;90.09
56182;BME280;51963;46.052;14.544;2023-04-24T01:34:00;97371.44;;;12.65;88.29
56182;BME280;51963;46.052;14.544;2023-04-24T01:36:27;97369.00;;;12.64;86.42
56182;BME280;51963;46.052;14.544;2023-04-24T01:38:59;97353.66;;;12.54;87.61
56182;BME280;51963;46.052;14.544;2023-04-24T01:41:25;97356.75;;;12.51;88.12
56182;BME280;51963;46.052;14.544;2023-04-24T01:43:54;97348.34;;;12.54;88.99
56182;BME280;51963;46.052;14.544;2023-04-24T01:46:20;97348.94;;;12.56;90.01
56182;BME280;51963;46.052;14.544;2023-04-24T01:48:47;97358.06;;;12.60;92.49
56182;BME280;51963;46.052;14.544;2023-04-24T01:51:13;97359.41;;;12.51;95.08
56182;BME280;51963;46.052;14.544;2023-04-24T01:53:42;97341.44;;;12.53;93.78
56182;BME280;51963;46.052;14.544;2023-04-24T01:56:08;97352.38;;;12.56;93.24
56182;BME280;51963;46.052;14.544;2023-04-24T01:58:35;97346.41;;;12.61;93.41
56182;BME280;51963;46.052;14.544;2023-04-24T02:01:01;97346.72;;;12.53;95.77
56182;BME280;51963;46.052;14.544;2023-04-24T02:03:27;97341.16;;;12.42;96.97
56182;BME280;51963;46.052;14.544;2023-04-24T02:06:00;97347.06;;;12.56;97.51
56182;BME280;51963;46.052;14.544;2023-04-24T02:08:30;97342.78;;;12.43;98.11
56182;BME280;51963;46.052;14.544;2023-04-24T02:10:58;97338.81;;;12.34;98.65
56182;BME280;51963;46.052;14.544;2023-04-24T02:13:26;97329.47;;;12.31;99.93
56182;BME280;51963;46.052;14.544;2023-04-24T02:15:52;97325.84;;;12.44;98.36
56182;BME280;51963;46.052;14.544;2023-04-24T02:18:18;97319.25;;;12.35;98.03
56182;BME280;51963;46.052;14.544;2023-04-24T02:20:49;97314.25;;;12.27;98.44
56182;BME280;51963;46.052;14.544;2023-04-24T02:23:17;97311.09;;;12.18;100.00
56182;BME280;51963;46.052;14.544;2023-04-24T02:25:44;97304.94;;;12.36;100.00
56182;BME280;51963;46.052;14.544;2023-04-24T02:28:10;97304.81;;;12.31;100.00
56182;BME280;51963;46.052;14.544;2023-04-24T02:30:37;97304.56;;;12.21;100.00
56182;BME280;51963;46.052;14.544;2023-04-24T02:33:06;97304.13;;;12.05;100.00
56182;BME280;51963;46.052;14.544;2023-04-24T02:35:33;97282.34;;;11.84;100.00
56182;BME280;51963;46.052;14.544;2023-04-24T02:38:00;97296.97;;;11.87;100.00
56182;BME280;51963;46.052;14.544;2023-04-24T02:40:25;97288.31;;;11.61;100.00
56182;BME280;51963;46.052;14.544;2023-04-24T02:42:53;97293.16;;;11.64;100.00
56182;BME280;51963;46.052;14.544;2023-04-24T02:45:19;97297.09;;;11.62;100.00
56182;BME280;51963;46.052;14.544;2023-04-24T02:47:45;97289.94;;;11.62;100.00
56182;BME280;51963;46.052;14.544;2023-04-24T02:50:10;97291.63;;;11.56;100.00
56182;BME280;51963;46.052;14.544;2023-04-24T02:52:36;97285.91;;;11.59;100.00
56182;BME280;51963;46.052;14.544;2023-04-24T02:55:05;97262.22;;;11.27;100.00
56182;BME280;51963;46.052;14.544;2023-04-24T02:57:31;97298.31;;;11.40;100.00
56182;BME280;51963;46.052;14.544;2023-04-24T02:59:59;97290.38;;;11.40;100.00
56182;BME280;51963;46.052;14.544;2023-04-24T03:02:25;97261.63;;;11.25;100.00
56182;BME280;51963;46.052;14.544;2023-04-24T03:04:55;97282.06;;;11.37;100.00
56182;BME280;51963;46.052;14.544;2023-04-24T03:07:22;97278.00;;;11.34;100.00
56182;BME280;51963;46.052;14.544;2023-04-24T03:09:49;97276.19;;;11.35;100.00
56182;BME280;51963;46.052;14.544;2023-04-24T03:12:15;97279.56;;;11.42;100.00
56182;BME280;51963;46.052;14.544;2023-04-24T03:14:45;97284.88;;;11.42;100.00
56182;BME280;51963;46.052;14.544;2023-04-24T03:17:11;97283.25;;;11.41;100.00
56182;BME280;51963;46.052;14.544;2023-04-24T03:19:36;97274.28;;;11.42;100.00
56182;BME280;51963;46.052;14.544;2023-04-24T03:22:08;97269.88;;;11.54;100.00
56182;BME280;51963;46.052;14.544;2023-04-24T03:24:35;97268.75;;;11.62;100.00
56182;BME280;51963;46.052;14.544;2023-04-24T03:27:01;97269.72;;;11.49;100.00
56182;BME280;51963;46.052;14.544;2023-04-24T03:29:48;97278.25;;;11.51;100.00
56182;BME280;51963;46.052;14.544;2023-04-24T03:32:25;97262.06;;;11.41;100.00
56182;BME280;51963;46.052;14.544;2023-04-24T03:34:51;97264.50;;;11.61;100.00
56182;BME280;51963;46.052;14.544;2023-04-24T03:37:17;97271.69;;;11.54;100.00
56182;BME280;51963;46.052;14.544;2023-04-24T03:39:52;97259.13;;;11.68;100.00
56182;BME280;51963;46.052;14.544;2023-04-24T03:42:23;97250.75;;;11.71;100.00
56182;BME280;51963;46.052;14.544;2023-04-24T03:44:53;97253.75;;;11.74;100.00
56182;BME280;51963;46.052;14.544;2023-04-24T03:47:25;97257.06;;;11.70;100.00
56182;BME280;51963;46.052;14.544;2023-04-24T03:49:54;97253.69;;;11.63;100.00
56182;BME280;51963;46.052;14.544;2023-04-24T03:52:21;97256.94;;;11.65;100.00
56182;BME280;51963;46.052;14.544;2023-04-24T03:54:50;97224.28;;;11.34;100.00
56182;BME280;51963;46.052;14.544;2023-04-24T03:57:16;97250.97;;;11.51;100.00
56182;BME280;51963;46.052;14.544;2023-04-24T03:59:54;97251.03;;;11.63;100.00
56182;BME280;51963;46.052;14.544;2023-04-24T04:02:21;97253.53;;;11.76;100.00
56182;BME280;51963;46.052;14.544;2023-04-24T04:04:47;97256.34;;;11.63;100.00
56182;BME280;51963;46.052;14.544;2023-04-24T04:07:13;97255.59;;;11.55;100.00
56182;BME280;51963;46.052;14.544;2023-04-24T04:09:38;97252.22;;;11.48;100.00
56182;BME280;51963;46.052;14.544;2023-04-24T04:12:04;97261.19;;;11.47;100.00
56182;BME280;51963;46.052;14.544;2023-04-24T04:14:32;97252.13;;;11.36;100.00
56182;BME280;51963;46.052;14.544;2023-04-24T04:17:03;97251.34;;;11.54;100.00
56182;BME280;51963;46.052;14.544;2023-04-24T04:19:31;97244.00;;;11.56;100.00
56182;BME280;51963;46.052;14.544;2023-04-24T04:21:57;97249.88;;;11.58;100.00
56182;BME280;51963;46.052;14.544;2023-04-24T04:24:33;97248.84;;;11.59;100.00
56182;BME280;51963;46.052;14.544;2023-04-24T04:26:59;97255.03;;;11.53;100.00
56182;BME280;51963;46.052;14.544;2023-04-24T04:29:35;97257.81;;;11.58;100.00
56182;BME280;51963;46.052;14.544;2023-04-24T04:32:07;97259.44;;;11.59;100.00
56182;BME280;51963;46.052;14.544;2023-04-24T04:34:36;97259.72;;;11.70;100.00
56182;BME280;51963;46.052;14.544;2023-04-24T04:37:04;97256.38;;;11.74;100.00
56182;BME280;51963;46.052;14.544;2023-04-24T04:39:46;97252.38;;;11.72;100.00
56182;BME280;51963;46.052;14.544;2023-04-24T04:42:20;97253.88;;;11.80;100.00
56182;BME280;51963;46.052;14.544;2023-04-24T04:44:46;97258.22;;;11.93;100.00
56182;BME280;51963;46.052;14.544;2023-04-24T04:47:22;97248.78;;;11.97;100.00
56182;BME280;51963;46.052;14.544;2023-04-24T04:49:50;97256.91;;;11.83;100.00
56182;BME280;51963;46.052;14.544;2023-04-24T04:52:25;97253.97;;;11.73;100.00
56182;BME280;51963;46.052;14.544;2023-04-24T04:55:22;97256.97;;;11.77;100.00
56182;BME280;51963;46.052;14.544;2023-04-24T04:58:17;97258.53;;;11.66;100.00
56182;BME280;51963;46.052;14.544;2023-04-24T05:00:46;97250.22;;;11.62;100.00
56182;BME280;51963;46.052;14.544;2023-04-24T05:03:25;97266.94;;;11.63;100.00
56182;BME280;51963;46.052;14.544;2023-04-24T05:05:57;97268.69;;;11.69;100.00
56182;BME280;51963;46.052;14.544;2023-04-24T05:08:24;97271.78;;;11.66;100.00
56182;BME280;51963;46.052;14.544;2023-04-24T05:10:49;97264.28;;;11.63;100.00
56182;BME280;51963;46.052;14.544;2023-04-24T05:13:16;97262.66;;;11.62;100.00
56182;BME280;51963;46.052;14.544;2023-04-24T05:15:43;97263.69;;;11.61;100.00
56182;BME280;51963;46.052;14.544;2023-04-24T05:18:09;97265.75;;;11.58;100.00
56182;BME280;51963;46.052;14.544;2023-04-24T05:20:40;97272.81;;;11.46;100.00
56182;BME280;51963;46.052;14.544;2023-04-24T05:23:08;97273.41;;;11.48;100.00
56182;BME280;51963;46.052;14.544;2023-04-24T05:25:34;97274.56;;;11.52;100.00
56182;BME280;51963;46.052;14.544;2023-04-24T05:28:06;97274.88;;;11.63;100.00
56182;BME280;51963;46.052;14.544;2023-04-24T05:30:32;97264.88;;;11.65;100.00
56182;BME280;51963;46.052;14.544;2023-04-24T05:32:58;97271.75;;;11.84;100.00
56182;BME280;51963;46.052;14.544;2023-04-24T05:35:24;97276.75;;;12.11;100.00
56182;BME280;51963;46.052;14.544;2023-04-24T05:37:50;97275.13;;;12.10;100.00
56182;BME280;51963;46.052;14.544;2023-04-24T05:40:16;97276.75;;;12.11;100.00
56182;BME280;51963;46.052;14.544;2023-04-24T05:42:42;97277.81;;;12.22;100.00
56182;BME280;51963;46.052;14.544;2023-04-24T05:45:08;97276.00;;;12.35;100.00
56182;BME280;51963;46.052;14.544;2023-04-24T05:47:37;97270.97;;;12.45;100.00
56182;BME280;51963;46.052;14.544;2023-04-24T05:50:03;97267.78;;;12.55;100.00
56182;BME280;51963;46.052;14.544;2023-04-24T05:52:29;97273.00;;;12.73;100.00
56182;BME280;51963;46.052;14.544;2023-04-24T05:54:55;97268.72;;;12.84;100.00
56182;BME280;51963;46.052;14.544;2023-04-24T05:57:26;97265.28;;;12.96;100.00
56182;BME280;51963;46.052;14.544;2023-04-24T05:59:57;97262.28;;;13.04;100.00
56182;BME280;51963;46.052;14.544;2023-04-24T06:02:24;97275.19;;;13.12;100.00
56182;BME280;51963;46.052;14.544;2023-04-24T06:04:51;97271.19;;;13.10;100.00
56182;BME280;51963;46.052;14.544;2023-04-24T06:07:17;97251.34;;;13.00;100.00
56182;BME280;51963;46.052;14.544;2023-04-24T06:09:44;97262.88;;;13.18;100.00
56182;BME280;51963;46.052;14.544;2023-04-24T06:12:11;97268.19;;;13.18;100.00
56182;BME280;51963;46.052;14.544;2023-04-24T06:14:58;97255.72;;;13.42;100.00
56182;BME280;51963;46.052;14.544;2023-04-24T06:17:42;97255.38;;;13.51;100.00
56182;BME280;51963;46.052;14.544;2023-04-24T06:20:09;97252.56;;;13.69;100.00
56182;BME280;51963;46.052;14.544;2023-04-24T06:22:36;97252.50;;;13.81;100.00
56182;BME280;51963;46.052;14.544;2023-04-24T06:25:02;97260.47;;;13.93;100.00
56182;BME280;51963;46.052;14.544;2023-04-24T06:27:31;97251.16;;;14.07;100.00
56182;BME280;51963;46.052;14.544;2023-04-24T06:30:01;97243.22;;;14.25;100.00
56182;BME280;51963;46.052;14.544;2023-04-24T06:32:30;97253.34;;;14.28;100.00
56182;BME280;51963;46.052;14.544;2023-04-24T06:34:56;97248.34;;;14.14;99.66
56182;BME280;51963;46.052;14.544;2023-04-24T06:37:22;97247.78;;;14.12;100.00
56182;BME280;51963;46.052;14.544;2023-04-24T06:39:48;97243.59;;;14.16;100.00
56182;BME280;51963;46.052;14.544;2023-04-24T06:42:14;97252.88;;;14.31;99.66
56182;BME280;51963;46.052;14.544;2023-04-24T06:44:42;97245.00;;;14.36;99.56
56182;BME280;51963;46.052;14.544;2023-04-24T06:47:09;97245.56;;;14.38;100.00
56182;BME280;51963;46.052;14.544;2023-04-24T06:49:36;97223.63;;;14.31;100.00
56182;BME280;51963;46.052;14.544;2023-04-24T06:52:02;97239.03;;;14.29;100.00
56182;BME280;51963;46.052;14.544;2023-04-24T06:54:29;97237.50;;;14.33;100.00
56182;BME280;51963;46.052;14.544;2023-04-24T06:56:55;97216.00;;;14.34;100.00
56182;BME280;51963;46.052;14.544;2023-04-24T06:59:29;97238.75;;;14.59;100.00
56182;BME280;51963;46.052;14.544;2023-04-24T07:01:55;97233.25;;;14.66;100.00
56182;BME280;51963;46.052;14.544;2023-04-24T07:04:21;97239.63;;;14.65;99.69
56182;BME280;51963;46.052;14.544;2023-04-24T07:06:47;97223.00;;;14.58;99.34
56182;BME280;51963;46.052;14.544;2023-04-24T07:09:17;97236.50;;;14.85;98.02
56182;BME280;51963;46.052;14.544;2023-04-24T07:11:44;97231.75;;;14.70;97.60
56182;BME280;51963;46.052;14.544;2023-04-24T07:14:10;97234.78;;;14.62;98.21
56182;BME280;51963;46.052;14.544;2023-04-24T07:16:36;97239.00;;;14.12;100.00
56182;BME280;51963;46.052;14.544;2023-04-24T07:19:02;97240.63;;;14.30;100.00
56182;BME280;51963;46.052;14.544;2023-04-24T07:21:28;97236.38;;;14.29;100.00
56182;BME280;51963;46.052;14.544;2023-04-24T07:23:54;97227.81;;;13.81;100.00
56182;BME280;51963;46.052;14.544;2023-04-24T07:26:20;97249.38;;;14.13;100.00
56182;BME280;51963;46.052;14.544;2023-04-24T07:28:46;97248.06;;;13.99;100.00
56182;BME280;51963;46.052;14.544;2023-04-24T07:31:12;97243.50;;;13.82;100.00
56182;BME280;51963;46.052;14.544;2023-04-24T07:33:38;97221.69;;;13.80;100.00
56182;BME280;51963;46.052;14.544;2023-04-24T07:36:04;97237.41;;;13.70;100.00
56182;BME280;51963;46.052;14.544;2023-04-24T07:38:30;97230.50;;;13.69;100.00
56182;BME280;51963;46.052;14.544;2023-04-24T07:40:56;97245.91;;;13.55;100.00
56182;BME280;51963;46.052;14.544;2023-04-24T07:43:23;97235.38;;;13.60;100.00
56182;BME280;51963;46.052;14.544;2023-04-24T07:45:50;97236.06;;;13.55;100.00
56182;BME280;51963;46.052;14.544;2023-04-24T07:48:16;97241.53;;;13.48;100.00
56182;BME280;51963;46.052;14.544;2023-04-24T07:50:44;97234.59;;;13.47;100.00
56182;BME280;51963;46.052;14.544;2023-04-24T07:53:10;97239.03;;;13.71;100.00
56182;BME280;51963;46.052;14.544;2023-04-24T07:55:36;97245.09;;;13.95;100.00
56182;BME280;51963;46.052;14.544;2023-04-24T07:58:02;97232.09;;;14.28;100.00
56182;BME280;51963;46.052;14.544;2023-04-24T08:00:27;97240.47;;;14.19;100.00
56182;BME280;51963;46.052;14.544;2023-04-24T08:02:53;97233.91;;;14.10;100.00
56182;BME280;51963;46.052;14.544;2023-04-24T08:05:19;97215.41;;;13.86;100.00
56182;BME280;51963;46.052;14.544;2023-04-24T08:07:45;97221.97;;;13.96;100.00
56182;BME280;51963;46.052;14.544;2023-04-24T08:10:14;97227.41;;;14.18;100.00
56182;BME280;51963;46.052;14.544;2023-04-24T08:12:41;97223.38;;;14.15;100.00
56182;BME280;51963;46.052;14.544;2023-04-24T08:15:07;97232.56;;;14.07;100.00
56182;BME280;51963;46.052;14.544;2023-04-24T08:17:34;97223.00;;;13.94;100.00
56182;BME280;51963;46.052;14.544;2023-04-24T08:20:01;97227.38;;;14.01;100.00
56182;BME280;51963;46.052;14.544;2023-04-24T08:22:29;97218.34;;;14.02;100.00
56182;BME280;51963;46.052;14.544;2023-04-24T08:24:55;97226.31;;;14.02;100.00
56182;BME280;51963;46.052;14.544;2023-04-24T08:27:23;97220.88;;;14.08;100.00
56182;BME280;51963;46.052;14.544;2023-04-24T08:29:49;97229.47;;;13.99;100.00
56182;BME280;51963;46.052;14.544;2023-04-24T08:32:18;97225.91;;;13.93;100.00
56182;BME280;51963;46.052;14.544;2023-04-24T08:34:43;97230.56;;;13.86;100.00
56182;BME280;51963;46.052;14.544;2023-04-24T08:37:12;97211.31;;;13.78;100.00
56182;BME280;51963;46.052;14.544;2023-04-24T08:39:38;97224.22;;;13.75;100.00
56182;BME280;51963;46.052;14.544;2023-04-24T08:42:05;97211.81;;;13.63;100.00
56182;BME280;51963;46.052;14.544;2023-04-24T08:44:34;97207.34;;;13.52;100.00
56182;BME280;51963;46.052;14.544;2023-04-24T08:47:04;97219.25;;;13.49;100.00
56182;BME280;51963;46.052;14.544;2023-04-24T08:49:30;97228.69;;;13.57;100.00
56182;BME280;51963;46.052;14.544;2023-04-24T08:51:56;97221.38;;;13.64;100.00
56182;BME280;51963;46.052;14.544;2023-04-24T08:54:26;97227.16;;;13.61;100.00
56182;BME280;51963;46.052;14.544;2023-04-24T08:56:53;97224.31;;;13.51;100.00
56182;BME280;51963;46.052;14.544;2023-04-24T08:59:21;97219.94;;;13.45;100.00
56182;BME280;51963;46.052;14.544;2023-04-24T09:01:48;97225.81;;;13.47;100.00
56182;BME280;51963;46.052;14.544;2023-04-24T09:04:15;97217.06;;;13.46;100.00
56182;BME280;51963;46.052;14.544;2023-04-24T09:06:43;97218.53;;;13.54;100.00
56182;BME280;51963;46.052;14.544;2023-04-24T09:09:10;97216.34;;;13.51;100.00
56182;BME280;51963;46.052;14.544;2023-04-24T09:11:37;97218.25;;;13.68;100.00
56182;BME280;51963;46.052;14.544;2023-04-24T09:14:03;97214.19;;;13.77;100.00
56182;BME280;51963;46.052;14.544;2023-04-24T09:16:29;97216.91;;;13.94;100.00
56182;BME280;51963;46.052;14.544;2023-04-24T09:18:55;97218.22;;;14.26;100.00
56182;BME280;51963;46.052;14.544;2023-04-24T09:21:22;97217.88;;;14.51;100.00
56182;BME280;51963;46.052;14.544;2023-04-24T09:23:58;97208.38;;;14.72;100.00
56182;BME280;51963;46.052;14.544;2023-04-24T09:26:25;97214.03;;;14.76;100.00
56182;BME280;51963;46.052;14.544;2023-04-24T09:28:51;97214.75;;;14.71;100.00
56182;BME280;51963;46.052;14.544;2023-04-24T09:31:19;97213.91;;;14.53;100.00
56182;BME280;51963;46.052;14.544;2023-04-24T09:34:03;97211.38;;;14.30;100.00
56182;BME280;51963;46.052;14.544;2023-04-24T09:39:05;97186.97;;;14.33;100.00
56182;BME280;51963;46.052;14.544;2023-04-24T09:41:33;97204.09;;;14.54;100.00
56182;BME280;51963;46.052;14.544;2023-04-24T09:44:28;97219.06;;;14.43;100.00
56182;BME280;51963;46.052;14.544;2023-04-24T09:49:26;97219.56;;;14.74;100.00
56182;BME280;51963;46.052;14.544;2023-04-24T09:52:02;97220.53;;;14.85;100.00
56182;BME280;51963;46.052;14.544;2023-04-24T09:54:29;97208.03;;;14.86;100.00
56182;BME280;51963;46.052;14.544;2023-04-24T09:56:55;97210.91;;;14.67;100.00
56182;BME280;51963;46.052;14.544;2023-04-24T09:59:21;97212.72;;;14.78;100.00
56182;BME280;51963;46.052;14.544;2023-04-24T10:01:50;97226.31;;;14.48;100.00
56182;BME280;51963;46.052;14.544;2023-04-24T10:04:23;97221.38;;;14.22;100.00
56182;BME280;51963;46.052;14.544;2023-04-24T10:06:53;97214.31;;;14.45;100.00
56182;BME280;51963;46.052;14.544;2023-04-24T10:09:20;97212.44;;;14.29;100.00
56182;BME280;51963;46.052;14.544;2023-04-24T10:11:48;97222.41;;;14.21;100.00
56182;BME280;51963;46.052;14.544;2023-04-24T10:14:15;97217.84;;;14.34;100.00
56182;BME280;51963;46.052;14.544;2023-04-24T10:16:42;97223.19;;;14.05;100.00
56182;BME280;51963;46.052;14.544;2023-04-24T10:19:08;97222.34;;;13.87;100.00
56182;BME280;51963;46.052;14.544;2023-04-24T10:21:35;97231.44;;;13.62;100.00
56182;BME280;51963;46.052;14.544;2023-04-24T10:24:06;97204.69;;;13.52;100.00
56182;BME280;51963;46.052;14.544;2023-04-24T10:26:32;97208.09;;;13.64;100.00
56182;BME280;51963;46.052;14.544;2023-04-24T10:28:59;97225.75;;;13.71;100.00
56182;BME280;51963;46.052;14.544;2023-04-24T10:31:27;97232.38;;;13.56;100.00
56182;BME280;51963;46.052;14.544;2023-04-24T10:33:56;97229.63;;;13.27;100.00
56182;BME280;51963;46.052;14.544;2023-04-24T10:36:23;97226.88;;;13.22;100.00
56182;BME280;51963;46.052;14.544;2023-04-24T10:38:52;97208.44;;;13.03;100.00
56182;BME280;51963;46.052;14.544;2023-04-24T10:41:20;97236.34;;;13.30;100.00
56182;BME280;51963;46.052;14.544;2023-04-24T10:46:36;97226.97;;;13.27;100.00
56182;BME280;51963;46.052;14.544;2023-04-24T10:49:06;97209.91;;;13.11;100.00
56182;BME280;51963;46.052;14.544;2023-04-24T10:51:53;97225.81;;;13.23;100.00
56182;BME280;51963;46.052;14.544;2023-04-24T10:54:34;97223.16;;;13.47;100.00
56182;BME280;51963;46.052;14.544;2023-04-24T10:59:45;97222.16;;;13.77;100.00
56182;BME280;51963;46.052;14.544;2023-04-24T11:02:14;97227.66;;;13.87;100.00
56182;BME280;51963;46.052;14.544;2023-04-24T11:04:46;97221.50;;;13.99;100.00
56182;BME280;51963;46.052;14.544;2023-04-24T11:07:16;97221.34;;;14.05;100.00
56182;BME280;51963;46.052;14.544;2023-04-24T11:09:42;97220.44;;;14.00;100.00
56182;BME280;51963;46.052;14.544;2023-04-24T11:12:12;97222.53;;;13.98;100.00
56182;BME280;51963;46.052;14.544;2023-04-24T11:17:34;97203.09;;;13.27;100.00
56182;BME280;51963;46.052;14.544;2023-04-24T11:20:23;97217.41;;;13.26;100.00
56182;BME280;51963;46.052;14.544;2023-04-24T11:22:53;97213.50;;;13.17;100.00
56182;BME280;51963;46.052;14.544;2023-04-24T11:25:21;97213.34;;;13.24;100.00
56182;BME280;51963;46.052;14.544;2023-04-24T11:27:47;97215.09;;;13.18;100.00
56182;BME280;51963;46.052;14.544;2023-04-24T11:30:20;97216.00;;;13.24;100.00
56182;BME280;51963;46.052;14.544;2023-04-24T11:32:50;97212.56;;;13.23;100.00
56182;BME280;51963;46.052;14.544;2023-04-24T11:35:22;97213.69;;;13.15;100.00
56182;BME280;51963;46.052;14.544;2023-04-24T11:37:52;97217.19;;;13.16;100.00
56182;BME280;51963;46.052;14.544;2023-04-24T11:40:20;97218.78;;;12.57;100.00
56182;BME280;51963;46.052;14.544;2023-04-24T11:42:50;97212.78;;;12.74;100.00
56182;BME280;51963;46.052;14.544;2023-04-24T11:45:22;97200.00;;;12.59;100.00
56182;BME280;51963;46.052;14.544;2023-04-24T11:47:48;97208.66;;;12.66;100.00
56182;BME280;51963;46.052;14.544;2023-04-24T11:50:21;97207.84;;;12.77;100.00
56182;BME280;51963;46.052;14.544;2023-04-24T11:52:49;97213.03;;;12.72;100.00
56182;BME280;51963;46.052;14.544;2023-04-24T11:57:52;97210.78;;;12.33;100.00
56182;BME280;51963;46.052;14.544;2023-04-24T12:00:23;97213.94;;;12.54;100.00
56182;BME280;51963;46.052;14.544;2023-04-24T12:03:06;97207.94;;;12.71;100.00
56182;BME280;51963;46.052;14.544;2023-04-24T12:05:32;97215.22;;;12.87;100.00
56182;BME280;51963;46.052;14.544;2023-04-24T12:07:58;97209.13;;;12.87;100.00
56182;BME280;51963;46.052;14.544;2023-04-24T12:10:26;97217.66;;;12.65;100.00
56182;BME280;51963;46.052;14.544;2023-04-24T12:12:53;97219.50;;;12.88;100.00
56182;BME280;51963;46.052;14.544;2023-04-24T12:15:21;97224.41;;;12.49;100.00
56182;BME280;51963;46.052;14.544;2023-04-24T12:17:50;97205.53;;;12.45;100.00
56182;BME280;51963;46.052;14.544;2023-04-24T12:20:17;97216.81;;;12.65;100.00
56182;BME280;51963;46.052;14.544;2023-04-24T12:22:54;97216.94;;;12.58;100.00
56182;BME280;51963;46.052;14.544;2023-04-24T12:25:32;97220.50;;;12.52;100.00
56182;BME280;51963;46.052;14.544;2023-04-24T12:30:35;97218.19;;;12.43;100.00
56182;BME280;51963;46.052;14.544;2023-04-24T12:33:04;97224.66;;;12.47;100.00
56182;BME280;51963;46.052;14.544;2023-04-24T12:35:31;97224.41;;;12.49;100.00
56182;BME280;51963;46.052;14.544;2023-04-24T12:38:10;97226.28;;;12.49;100.00
56182;BME280;51963;46.052;14.544;2023-04-24T12:40:41;97230.41;;;12.56;100.00
56182;BME280;51963;46.052;14.544;2023-04-24T12:43:20;97227.09;;;12.61;100.00
56182;BME280;51963;46.052;14.544;2023-04-24T12:45:47;97234.94;;;12.56;100.00
56182;BME280;51963;46.052;14.544;2023-04-24T12:48:13;97223.97;;;12.52;100.00
56182;BME280;51963;46.052;14.544;2023-04-24T12:50:42;97225.94;;;12.57;100.00
56182;BME280;51963;46.052;14.544;2023-04-24T12:53:11;97232.72;;;12.65;100.00
56182;BME280;51963;46.052;14.544;2023-04-24T12:55:37;97235.84;;;12.61;100.00
56182;BME280;51963;46.052;14.544;2023-04-24T12:58:05;97240.00;;;12.69;100.00
56182;BME280;51963;46.052;14.544;2023-04-24T13:00:34;97236.09;;;12.84;100.00
56182;BME280;51963;46.052;14.544;2023-04-24T13:03:00;97232.19;;;12.98;100.00
56182;BME280;51963;46.052;14.544;2023-04-24T13:05:26;97229.06;;;12.77;100.00
56182;BME280;51963;46.052;14.544;2023-04-24T13:08:04;97230.00;;;12.71;100.00